Time;durP1;ratioP1;P1;durP2;ratioP2;P2;SDS_P1;SDS_P2;PMS_P1;PMS_P2;Temp;Humidity;BMP_temperature;BMP_pressure;BME280_temperature;BME280_humidity;BME280_pressure;Samples;Min_cycle;Max_cycle;Signal;HPM_P1;HPM_P2
2023/10/18 03:33:31;;;;;;;;;;;;;;;;;;;;;
2023/10/18 05:15:16;;;;;;;21.60;18.33;;;5.20;99.90;;;;;;4736837;29;20457;-81
2023/10/18 05:18:15;;;;;;;19.03;17.13;;;5.20;99.90;;;;;;4810255;29;20564;-80
2023/10/18 05:20:58;;;;;;;19.23;17.23;;;4.90;99.90;;;;;;4928183;28;20471;-77
2023/10/18 05:23:41;;;;;;;19.87;17.87;;;5.20;99.90;;;;;;4998897;28;20460;-80
2023/10/18 05:26:32;;;;;;;23.40;18.43;;;5.20;99.90;;;;;;5003309;28;20479;-81
2023/10/18 05:29:57;;;;;;;21.40;19.10;;;5.10;99.90;;;;;;5002307;28;20488;-81
2023/10/18 05:33:22;;;;;;;;;;;;;;;;;;;;;
2023/10/18 05:43:00;;;;;;;;;;;;;;;;;;;;;
2023/10/18 05:49:32;;;;;;;19.73;16.97;;;5.20;99.90;;;;;;4801335;29;20533;-83
2023/10/18 05:58:39;;;;;;;20.53;18.43;;;5.20;99.90;;;;;;4986852;28;20483;-78
2023/10/18 06:01:47;;;;;;;21.90;18.57;;;5.20;99.90;;;;;;5035753;28;20482;-79
2023/10/18 06:07:41;;;;;;;22.80;20.10;;;5.00;99.90;;;;;;5031392;28;20467;-81
2023/10/18 06:10:26;;;;;;;23.63;18.60;;;5.30;99.90;;;;;;5035617;28;20534;-82
2023/10/18 06:13:10;;;;;;;21.83;18.97;;;4.80;99.90;;;;;;5035222;28;20459;-80
2023/10/18 06:19:15;;;;;;;22.50;20.07;;;5.10;99.90;;;;;;5027935;28;20528;-79
2023/10/18 06:22:39;;;;;;;24.53;19.67;;;5.10;99.90;;;;;;5024470;28;20455;-78
2023/10/18 06:25:34;;;;;;;23.63;19.07;;;5.20;99.90;;;;;;5012097;28;20482;-81
2023/10/18 06:28:24;;;;;;;23.50;19.33;;;5.30;99.90;;;;;;5027831;28;20475;-80
2023/10/18 06:31:13;;;;;;;23.60;18.07;;;5.30;99.90;;;;;;5022754;28;20510;-84
2023/10/18 06:34:15;;;;;;;;;;;;;;;;;;;;;
2023/10/18 06:37:20;;;;;;;21.50;19.20;;;5.30;99.90;;;;;;5023908;28;20455;-82
2023/10/18 06:40:27;;;;;;;24.70;19.20;;;5.40;99.90;;;;;;5026267;28;20491;-82
2023/10/18 06:43:30;;;;;;;23.67;20.37;;;5.40;99.90;;;;;;5027563;28;20457;-82
2023/10/18 06:46:22;;;;;;;23.20;20.70;;;5.50;99.90;;;;;;5016714;28;20458;-82
2023/10/18 06:52:04;;;;;;;22.10;19.80;;;5.50;99.90;;;;;;5020909;28;20478;-83
2023/10/18 06:54:54;;;;;;;23.80;20.70;;;5.60;99.90;;;;;;5021392;28;20455;-82
2023/10/18 07:00:19;;;;;;;27.00;21.23;;;5.60;99.90;;;;;;5021234;28;20511;-81
2023/10/18 07:03:16;;;;;;;22.70;20.37;;;5.70;99.90;;;;;;5006362;28;20864;-81
2023/10/18 07:06:04;;;;;;;26.90;21.30;;;5.70;99.90;;;;;;4981638;28;20521;-83
2023/10/18 07:08:54;;;;;;;23.87;21.27;;;5.70;99.90;;;;;;4991934;28;20507;-82
2023/10/18 07:11:52;;;;;;;26.33;21.70;;;5.40;99.90;;;;;;4984050;28;20446;-82
2023/10/18 07:14:32;;;;;;;26.87;21.60;;;5.80;99.90;;;;;;4990445;28;20481;-82
2023/10/18 07:17:25;;;;;;;23.07;20.50;;;5.50;99.90;;;;;;4980709;28;20478;-81
2023/10/18 07:20:36;;;;;;;24.63;20.70;;;5.90;99.90;;;;;;4981175;28;20469;-81
2023/10/18 07:23:20;;;;;;;25.33;21.33;;;5.90;99.90;;;;;;4981239;28;20470;-81
2023/10/18 07:25:55;;;;;;;23.50;21.00;;;6.00;99.90;;;;;;4995332;28;20445;-79
2023/10/18 07:29:06;;;;;;;;;;;;;;;;;;;;;
2023/10/18 07:32:06;;;;;;;26.87;21.10;;;5.90;99.90;;;;;;4996145;28;20461;-78
2023/10/18 07:35:06;;;;;;;24.50;20.90;;;6.50;99.90;;;;;;4980643;28;20524;-83
2023/10/18 07:37:43;;;;;;;23.57;21.03;;;6.30;99.90;;;;;;4986934;28;20478;-82
2023/10/18 07:40:36;;;;;;;28.77;24.57;;;6.40;99.90;;;;;;4993227;28;20478;-79
2023/10/18 07:43:20;;;;;;;24.40;21.87;;;6.40;99.90;;;;;;4980611;28;20500;-79
2023/10/18 07:46:16;;;;;;;28.00;22.67;;;6.10;99.90;;;;;;4980292;28;20521;-81
2023/10/18 07:48:57;;;;;;;25.80;23.10;;;6.50;99.90;;;;;;4981940;28;20475;-82
2023/10/18 07:51:55;;;;;;;27.63;23.43;;;6.60;99.90;;;;;;4985114;28;20495;-80
2023/10/18 07:54:26;;;;;;;25.73;22.97;;;6.40;99.90;;;;;;4985389;28;20459;-81
2023/10/18 07:57:03;;;;;;;33.33;22.70;;;6.80;99.90;;;;;;4986620;28;20474;-82
2023/10/18 08:02:52;;;;;;;29.13;24.20;;;7.00;99.90;;;;;;4990587;28;20437;-80
2023/10/18 08:05:46;;;;;;;28.03;23.80;;;7.20;99.90;;;;;;4990385;28;20502;-80
2023/10/18 08:08:24;;;;;;;25.87;23.27;;;7.40;99.90;;;;;;4988168;28;20437;-83
2023/10/18 08:11:05;;;;;;;25.97;22.27;;;7.50;99.90;;;;;;4985259;28;20469;-79
2023/10/18 08:13:49;;;;;;;25.50;22.80;;;7.80;99.90;;;;;;4986029;28;20455;-82
2023/10/18 08:16:44;;;;;;;27.53;23.17;;;8.00;99.90;;;;;;4993338;28;20475;-82
2023/10/18 08:19:33;;;;;;;26.17;23.30;;;7.70;99.90;;;;;;4981404;28;20463;-80
2023/10/18 08:22:40;;;;;;;24.17;21.53;;;8.20;99.90;;;;;;4982712;28;20469;-80
2023/10/18 08:25:29;;;;;;;26.03;23.23;;;8.30;99.90;;;;;;4994017;28;20460;-83
2023/10/18 08:28:34;;;;;;;;;;;;;;;;;;;;;
2023/10/18 08:31:32;;;;;;;22.57;20.17;;;8.50;99.90;;;;;;4980277;28;20533;-82
2023/10/18 08:34:23;;;;;;;23.03;20.63;;;8.70;99.90;;;;;;4978603;28;20460;-79
2023/10/18 08:43:06;;;;;;;22.53;20.00;;;9.50;99.90;;;;;;4979524;28;20439;-80
2023/10/18 08:45:50;;;;;;;21.67;19.47;;;9.60;99.90;;;;;;4976712;28;20453;-80
2023/10/18 08:48:38;;;;;;;25.10;19.50;;;9.60;99.90;;;;;;4975898;28;20451;-79
2023/10/18 08:51:35;;;;;;;23.20;20.80;;;9.70;99.90;;;;;;4975249;28;20524;-81
2023/10/18 08:54:17;;;;;;;22.37;20.00;;;9.90;99.90;;;;;;4980508;28;20481;-80
2023/10/18 08:57:08;;;;;;;22.10;19.73;;;10.00;99.90;;;;;;4976711;28;20579;-81
2023/10/18 08:59:48;;;;;;;21.07;18.80;;;10.20;99.90;;;;;;4979963;28;20444;-78
2023/10/18 09:02:39;;;;;;;21.60;19.27;;;10.40;99.90;;;;;;4989033;28;20517;-82
2023/10/18 09:05:15;;;;;;;22.50;20.03;;;10.50;99.90;;;;;;4981900;28;20453;-81
2023/10/18 09:08:00;;;;;;;22.20;20.10;;;10.60;99.90;;;;;;4982244;28;20539;-83
2023/10/18 09:10:48;;;;;;;22.60;19.50;;;10.60;99.90;;;;;;4981907;28;20694;-82
2023/10/18 09:14:07;;;;;;;21.27;18.97;;;10.90;99.90;;;;;;4995406;28;20445;-81
2023/10/18 09:20:26;;;;;;;22.47;20.27;;;11.10;99.90;;;;;;4951735;28;20448;-79
2023/10/18 09:26:51;;;;;;;20.60;18.60;;;11.50;99.90;;;;;;4981905;28;20488;-80
2023/10/18 09:30:03;;;;;;;20.83;18.67;;;11.60;99.90;;;;;;4991169;28;20443;-83
2023/10/18 09:39:56;;;;;;;21.40;18.83;;;12.50;99.90;;;;;;4885903;29;20450;-83
2023/10/18 09:46:08;;;;;;;19.67;17.67;;;12.60;99.90;;;;;;4957429;28;20774;-81
2023/10/18 09:52:31;;;;;;;;;;;;;;;;;;;;;
2023/10/18 09:55:26;;;;;;;20.83;18.03;;;12.90;99.90;;;;;;4984536;28;20429;-83
2023/10/18 09:58:48;;;;;;;19.73;17.80;;;12.90;99.90;;;;;;4999748;28;20527;-84
2023/10/18 10:02:07;;;;;;;21.23;18.43;;;13.10;99.90;;;;;;4998401;28;20473;-83
2023/10/18 10:08:37;;;;;;;22.60;20.30;;;13.30;99.90;;;;;;4963694;28;20469;-82
2023/10/18 10:19:07;;;;;;;;;;;;;;;;;;;;;
2023/10/18 10:36:00;;;;;;;20.03;17.83;;;13.90;99.90;;;;;;4877346;29;20454;-82
2023/10/18 10:42:29;;;;;;;;;;;;;;;;;;;;;
2023/10/18 10:56:26;;;;;;;18.87;16.80;;;15.20;99.90;;;;;;4991201;28;20433;-82
2023/10/18 11:10:30;;;;;;;17.77;16.00;;;15.80;99.90;;;;;;4933995;28;20430;-83
2023/10/18 12:23:49;;;;;;;10.70;9.80;;;15.30;99.90;;;;;;4807860;29;20476;-81
2023/10/18 12:33:27;;;;;;;10.50;9.27;;;16.00;99.90;;;;;;4833645;29;20492;-82
2023/10/18 13:21:20;;;;;;;9.63;8.67;;;16.30;99.90;;;;;;5068785;28;20446;-80
2023/10/18 13:24:16;;;;;;;10.00;7.70;;;16.20;99.90;;;;;;5133538;28;20438;-78
2023/10/18 13:27:14;;;;;;;14.53;13.30;;;16.40;99.90;;;;;;5137093;28;20461;-83
2023/10/18 13:33:34;;;;;;;7.90;6.80;;;16.40;99.90;;;;;;5079509;28;20421;-82
2023/10/18 13:36:38;;;;;;;7.30;6.70;;;16.40;99.90;;;;;;5127603;28;20435;-80
2023/10/18 13:39:47;;;;;;;7.73;7.13;;;16.40;99.90;;;;;;5078943;28;20514;-83
2023/10/18 13:42:46;;;;;;;9.67;6.53;;;16.40;99.90;;;;;;5076763;28;20440;-83
2023/10/18 13:48:33;;;;;;;6.57;6.07;;;16.40;99.90;;;;;;5043981;28;20523;-81
2023/10/18 13:58:13;;;;;;;5.47;5.07;;;16.30;99.90;;;;;;5048411;28;20461;-81
2023/10/18 14:04:08;;;;;;;7.33;5.40;;;16.40;99.90;;;;;;5064482;28;20426;-82
2023/10/18 14:13:58;;;;;;;5.87;5.37;;;15.80;99.90;;;;;;5007788;28;20499;-81
2023/10/18 15:05:55;;;;;;;;;;;;;;;;;;;;;
2023/10/18 15:30:09;;;;;;;10.60;9.60;;;14.40;99.90;;;;;;4962874;28;20486;-82
2023/10/18 15:36:30;;;;;;;14.03;12.73;;;14.40;99.90;;;;;;4931710;28;21025;-80
2023/10/18 15:39:43;;;;;;;11.70;10.57;;;14.40;99.90;;;;;;5021242;28;20438;-81
2023/10/18 15:45:56;;;;;;;13.03;10.40;;;14.00;99.90;;;;;;4924842;28;20578;-83
2023/10/18 15:52:06;;;;;;;11.37;10.37;;;14.00;99.90;;;;;;4978787;28;20872;-81
2023/10/18 15:55:13;;;;;;;12.93;11.50;;;13.90;99.90;;;;;;5120975;28;20439;-80
2023/10/18 15:57:54;;;;;;;78.93;43.07;;;13.70;99.90;;;;;;5119557;28;21041;-82
2023/10/18 16:00:31;;;;;;;25.93;16.53;;;13.30;99.90;;;;;;5122294;28;20526;-84
2023/10/18 16:03:30;;;;;;;13.37;11.80;;;13.50;99.90;;;;;;5125241;28;20989;-81
2023/10/18 16:06:16;;;;;;;13.13;11.90;;;13.70;99.90;;;;;;5124865;28;20514;-82
2023/10/18 16:08:55;;;;;;;13.77;12.00;;;13.50;99.90;;;;;;5120941;28;20555;-80
2023/10/18 16:11:32;;;;;;;13.83;12.40;;;13.40;99.90;;;;;;5120560;28;20450;-82
2023/10/18 16:14:07;;;;;;;13.03;11.47;;;13.10;99.90;;;;;;5118027;28;20434;-82
2023/10/18 16:17:14;;;;;;;13.37;11.83;;;12.90;99.90;;;;;;5122211;28;20992;-82
2023/10/18 16:19:50;;;;;;;14.03;12.63;;;12.60;99.90;;;;;;5121656;28;20432;-81
2023/10/18 16:23:05;;;;;;;;;;;;;;;;;;;;;
2023/10/18 16:25:39;;;;;;;13.10;11.50;;;12.90;99.90;;;;;;5116629;28;20435;-82
2023/10/18 16:28:09;;;;;;;14.63;13.10;;;13.10;99.90;;;;;;5118690;28;20478;-83
2023/10/18 16:30:41;;;;;;;12.83;11.73;;;12.90;99.90;;;;;;5119689;28;21123;-83
2023/10/18 16:33:11;;;;;;;13.33;12.07;;;12.80;99.90;;;;;;5118231;28;20488;-84
2023/10/18 16:35:39;;;;;;;13.03;11.83;;;12.80;99.90;;;;;;5120043;28;20443;-84
2023/10/18 16:38:10;;;;;;;13.80;12.43;;;12.70;99.90;;;;;;5120052;28;20527;-83
2023/10/18 16:41:00;;;;;;;13.87;12.57;;;12.70;99.90;;;;;;5119604;28;20442;-83
2023/10/18 16:43:35;;;;;;;14.03;12.63;;;12.70;99.90;;;;;;5120968;28;20454;-85
2023/10/18 16:46:09;;;;;;;13.23;11.90;;;12.60;99.90;;;;;;5120400;28;20517;-84
2023/10/18 16:48:46;;;;;;;14.67;13.17;;;12.50;99.90;;;;;;5119390;28;20450;-84
2023/10/18 16:51:25;;;;;;;14.07;12.77;;;12.50;99.90;;;;;;5120819;28;20415;-83
2023/10/18 16:53:56;;;;;;;14.63;12.27;;;12.50;99.90;;;;;;5121374;28;20474;-86
2023/10/18 16:56:28;;;;;;;14.50;13.10;;;12.50;99.90;;;;;;5121517;28;20473;-84
2023/10/18 16:59:15;;;;;;;13.77;12.57;;;12.50;99.90;;;;;;5122107;28;20474;-85
2023/10/18 17:01:49;;;;;;;14.03;12.47;;;12.50;99.90;;;;;;5112717;28;20449;-84
2023/10/18 17:04:23;;;;;;;14.63;13.27;;;12.60;99.90;;;;;;5120987;28;20491;-84
2023/10/18 17:07:11;;;;;;;13.90;12.60;;;12.10;99.90;;;;;;5119218;28;20462;-84
2023/10/18 17:09:45;;;;;;;14.23;12.87;;;12.30;99.90;;;;;;5119377;28;20462;-85
2023/10/18 17:12:17;;;;;;;13.60;12.30;;;12.10;99.90;;;;;;5119657;28;20430;-84
2023/10/18 17:15:06;;;;;;;18.50;13.47;;;11.60;99.90;;;;;;5119828;28;20431;-83
2023/10/18 17:17:34;;;;;;;12.23;11.23;;;11.90;99.90;;;;;;5119968;28;20474;-83
2023/10/18 17:20:06;;;;;;;13.17;11.87;;;12.00;99.90;;;;;;5120215;28;20455;-81
2023/10/18 17:22:34;;;;;;;13.93;12.63;;;12.00;99.90;;;;;;5119114;28;20443;-81
2023/10/18 17:25:01;;;;;;;15.83;14.23;;;12.00;99.90;;;;;;5118244;28;20431;-80
2023/10/18 17:27:33;;;;;;;14.47;13.07;;;12.00;99.90;;;;;;5122414;28;20447;-80
2023/10/18 17:30:11;;;;;;;15.83;14.23;;;11.80;99.90;;;;;;5121243;28;20466;-83
2023/10/18 17:32:40;;;;;;;16.53;14.83;;;12.40;99.90;;;;;;5122589;28;20470;-79
2023/10/18 17:35:11;;;;;;;16.33;14.60;;;12.10;99.90;;;;;;5122327;28;20423;-82
2023/10/18 17:37:46;;;;;;;18.07;16.30;;;12.20;99.90;;;;;;5118333;28;20455;-84
2023/10/18 17:40:18;;;;;;;16.10;14.60;;;12.20;99.90;;;;;;5125270;28;20518;-83
2023/10/18 17:42:47;;;;;;;18.83;15.23;;;12.20;99.90;;;;;;5124215;28;20454;-83
2023/10/18 17:45:27;;;;;;;16.73;15.03;;;12.20;99.90;;;;;;5127972;28;20454;-82
2023/10/18 17:48:04;;;;;;;17.10;15.40;;;12.30;99.90;;;;;;5126720;28;20497;-82
2023/10/18 17:51:08;;;;;;;14.70;13.33;;;12.40;99.90;;;;;;5125451;28;20462;-82
2023/10/18 17:54:04;;;;;;;19.37;15.60;;;12.30;99.90;;;;;;5087217;28;20450;-84
2023/10/18 17:56:50;;;;;;;;;;;;;;;;;;;;;
2023/10/18 17:59:30;;;;;;;17.00;15.20;;;12.00;99.90;;;;;;5124957;28;20442;-81
2023/10/18 18:01:59;;;;;;;16.53;14.93;;;11.90;99.90;;;;;;5124781;28;20435;-81
2023/10/18 18:04:34;;;;;;;16.67;14.97;;;11.90;99.90;;;;;;5124571;28;20775;-81
2023/10/18 18:07:04;;;;;;;17.07;15.27;;;11.90;99.90;;;;;;5124268;28;20462;-82
2023/10/18 18:09:33;;;;;;;16.77;15.17;;;12.00;99.90;;;;;;5124450;28;20471;-80
2023/10/18 18:12:08;;;;;;;18.13;16.30;;;12.00;99.90;;;;;;5124129;28;20451;-81
2023/10/18 18:14:41;;;;;;;18.27;16.37;;;12.00;99.90;;;;;;5121075;28;20435;-81
2023/10/18 18:17:13;;;;;;;16.87;15.37;;;11.90;99.90;;;;;;5123087;28;20501;-83
2023/10/18 18:20:22;;;;;;;18.30;16.40;;;12.00;99.90;;;;;;5125561;28;20533;-83
2023/10/18 18:23:00;;;;;;;17.67;15.83;;;12.00;99.90;;;;;;5128163;28;20453;-84
2023/10/18 18:25:27;;;;;;;17.60;15.80;;;11.90;99.90;;;;;;5128371;28;20476;-84
2023/10/18 18:28:00;;;;;;;18.07;16.37;;;11.90;99.90;;;;;;5127710;28;20516;-86
2023/10/18 18:30:28;;;;;;;16.93;15.43;;;11.90;99.90;;;;;;5122108;28;20530;-84
2023/10/18 18:33:06;;;;;;;18.17;16.37;;;11.80;99.90;;;;;;5122120;28;20462;-85
2023/10/18 18:35:39;;;;;;;19.37;17.37;;;11.80;99.90;;;;;;5121919;28;20438;-82
2023/10/18 18:38:06;;;;;;;17.53;15.93;;;11.80;99.90;;;;;;5120849;28;21122;-81
2023/10/18 18:40:36;;;;;;;18.70;16.70;;;11.80;99.90;;;;;;5125310;28;20435;-82
2023/10/18 18:43:03;;;;;;;18.03;16.13;;;11.80;99.90;;;;;;5121062;28;20446;-83
2023/10/18 18:45:35;;;;;;;18.97;17.17;;;11.80;99.90;;;;;;5124867;28;20439;-83
2023/10/18 18:48:05;;;;;;;18.60;16.77;;;11.80;99.90;;;;;;5122231;28;20496;-80
2023/10/18 18:50:35;;;;;;;18.03;16.40;;;11.80;99.90;;;;;;5125346;28;20505;-83
2023/10/18 18:53:04;;;;;;;20.70;18.67;;;11.80;99.90;;;;;;5126796;28;20459;-80
2023/10/18 18:55:32;;;;;;;20.30;18.43;;;12.00;99.90;;;;;;5128323;28;20432;-83
2023/10/18 18:58:55;;;;;;;;;;;;;;;;;;;;;
2023/10/18 19:07:27;;;;;;;21.17;18.93;;;11.80;99.90;;;;;;5121094;28;20479;-83
2023/10/18 19:13:31;;;;;;;20.03;17.97;;;11.80;99.90;;;;;;5123937;28;20454;-80
2023/10/18 19:16:59;;;;;;;22.40;19.67;;;12.00;99.90;;;;;;5123497;28;20823;-82
2023/10/18 19:23:53;;;;;;;;;;;;;;;;;;;;;
2023/10/18 19:36:37;;;;;;;;;;;;;;;;;;;;;
2023/10/18 19:43:22;;;;;;;21.67;19.37;;;11.90;99.90;;;;;;5011417;28;20454;-83
2023/10/18 19:52:19;;;;;;;20.53;18.50;;;11.70;99.90;;;;;;5127343;28;20478;-84
2023/10/18 19:55:40;;;;;;;20.53;18.43;;;11.70;99.90;;;;;;5127137;28;20800;-82
2023/10/18 20:05:46;;;;;;;21.60;18.67;;;11.80;99.90;;;;;;5055009;28;20440;-85
2023/10/18 20:09:02;;;;;;;21.23;19.23;;;11.60;99.90;;;;;;4955156;29;20469;-85
2023/10/18 20:15:44;;;;;;;;;;;;;;;;;;;;;
2023/10/18 20:18:42;;;;;;;24.17;20.10;;;11.50;99.90;;;;;;5094848;28;20457;-85
2023/10/18 20:21:28;;;;;;;21.73;19.53;;;11.50;99.90;;;;;;5023221;28;20436;-86
2023/10/18 20:28:27;;;;;;;24.47;22.13;;;11.50;99.90;;;;;;4939616;29;20489;-85
2023/10/18 20:31:11;;;;;;;23.97;21.53;;;11.50;99.90;;;;;;5038184;28;20474;-85
2023/10/18 20:33:46;;;;;;;23.80;21.60;;;11.50;99.90;;;;;;5112915;28;20435;-85
2023/10/18 20:36:18;;;;;;;24.23;21.63;;;11.50;99.90;;;;;;5119619;28;20466;-84
2023/10/18 20:38:53;;;;;;;24.30;21.80;;;11.50;99.90;;;;;;5120556;28;20488;-84
2023/10/18 20:41:54;;;;;;;23.77;21.47;;;11.50;99.90;;;;;;5121020;28;20427;-84
2023/10/18 20:44:42;;;;;;;25.07;22.47;;;11.50;99.90;;;;;;5115264;28;20461;-83
2023/10/18 20:47:16;;;;;;;28.17;22.40;;;11.60;99.90;;;;;;5118848;28;20989;-84
2023/10/18 21:02:19;;;;;;;24.10;21.73;;;11.20;99.90;;;;;;5056022;28;20482;-84
2023/10/18 21:05:20;;;;;;;;;;;;;;;;;;;;;
2023/10/18 21:11:17;;;;;;;24.83;22.43;;;11.50;99.90;;;;;;5121338;28;20470;-83
2023/10/18 21:14:07;;;;;;;26.57;23.87;;;11.50;99.90;;;;;;5128822;28;20517;-84
2023/10/18 21:20:42;;;;;;;25.57;23.07;;;11.40;99.90;;;;;;5116000;28;20450;-83
2023/10/18 21:23:48;;;;;;;24.50;22.10;;;11.50;99.90;;;;;;5023208;28;20459;-85
2023/10/18 21:26:24;;;;;;;23.33;21.10;;;11.40;99.90;;;;;;5123794;28;20450;-84
2023/10/18 21:32:13;;;;;;;;;;;;;;;;;;;;;
2023/10/18 21:38:34;;;;;;;26.17;23.57;;;11.50;99.90;;;;;;5085619;28;20515;-84
2023/10/18 21:44:31;;;;;;;24.83;22.33;;;11.50;99.90;;;;;;5115520;28;20442;-84
2023/10/18 21:50:36;;;;;;;25.07;22.57;;;11.40;99.90;;;;;;5119957;28;20419;-84
2023/10/18 21:53:29;;;;;;;26.27;23.50;;;11.40;99.90;;;;;;5132036;28;20451;-85
2023/10/18 21:56:20;;;;;;;26.93;24.03;;;11.30;99.90;;;;;;5132332;28;20438;-85
2023/10/18 22:06:25;;;;;;;;;;;;;;;;;;;;;
2023/10/18 22:26:44;;;;;;;27.97;25.00;;;11.40;99.90;;;;;;5079468;28;20458;-80
2023/10/18 22:29:42;;;;;;;26.83;24.20;;;11.40;99.90;;;;;;5103648;28;20796;-79
2023/10/18 22:32:55;;;;;;;26.83;24.07;;;11.40;99.90;;;;;;5122312;28;20508;-80
2023/10/18 22:38:23;;;;;;;24.93;22.57;;;11.10;99.90;;;;;;5118954;28;20528;-80
2023/10/18 22:41:17;;;;;;;26.03;23.33;;;11.40;99.90;;;;;;5122714;28;20442;-79
2023/10/18 22:43:55;;;;;;;24.90;22.40;;;11.20;99.90;;;;;;5127514;28;20478;-80
2023/10/18 22:46:40;;;;;;;26.20;23.50;;;11.40;99.90;;;;;;5130263;28;20558;-81
2023/10/18 22:49:20;;;;;;;27.33;24.73;;;11.40;99.90;;;;;;5130886;28;20470;-81
2023/10/18 22:52:38;;;;;;;;;;;;;;;;;;;;;
2023/10/18 22:56:10;;;;;;;28.23;25.47;;;11.70;99.90;;;;;;5127407;28;20458;-79
2023/10/18 22:59:22;;;;;;;26.10;23.50;;;11.60;99.90;;;;;;5044669;28;20447;-79
2023/10/18 23:05:35;;;;;;;26.03;23.57;;;11.40;99.90;;;;;;5077900;28;20520;-80
2023/10/18 23:08:51;;;;;;;26.10;23.43;;;11.40;99.90;;;;;;5090968;28;20470;-81
2023/10/18 23:18:45;;;;;;;27.97;25.37;;;11.40;99.90;;;;;;4985379;28;20505;-80
2023/10/18 23:29:06;;;;;;;26.53;24.13;;;11.10;99.90;;;;;;5002542;28;20882;-79
2023/10/18 23:32:10;;;;;;;27.70;24.80;;;11.40;99.90;;;;;;5097383;28;20471;-80
2023/10/18 23:38:38;;;;;;;27.50;24.80;;;11.40;99.90;;;;;;5071217;28;20528;-80
2023/10/18 23:45:30;;;;;;;;;;;;;;;;;;;;;
